createdAt,value
2023-03-20T00:00:00.110Z,8.71
2023-03-20T00:02:29.249Z,8.85
2023-03-20T00:04:59.653Z,8.86
2023-03-20T00:07:28.784Z,8.79
2023-03-20T00:09:57.919Z,8.93
2023-03-20T00:12:27.348Z,8.90
2023-03-20T00:14:56.554Z,8.78
2023-03-20T00:17:25.732Z,9.02
2023-03-20T00:19:54.772Z,8.83
2023-03-20T00:22:25.193Z,9.03
2023-03-20T00:24:54.341Z,9.04
2023-03-20T00:27:23.385Z,9.09
2023-03-20T00:29:52.422Z,9.00
2023-03-20T00:32:21.460Z,9.08
2023-03-20T00:34:50.627Z,9.01
2023-03-20T00:37:19.697Z,9.08
2023-03-20T00:39:50.342Z,9.03
2023-03-20T00:42:23.004Z,9.07
2023-03-20T00:44:54.693Z,9.15
2023-03-20T00:47:27.194Z,9.20
2023-03-20T00:49:57.889Z,9.03
2023-03-20T00:52:27.253Z,9.16
2023-03-20T00:54:57.646Z,9.07
2023-03-20T00:57:30.800Z,9.06
2023-03-20T01:00:05.046Z,9.17
2023-03-20T01:02:35.119Z,9.06
2023-03-20T01:05:05.587Z,8.91
2023-03-20T01:07:34.725Z,9.04
2023-03-20T01:10:07.746Z,8.99
2023-03-20T01:12:36.857Z,9.01
2023-03-20T01:15:16.018Z,9.13
2023-03-20T01:17:45.372Z,8.95
2023-03-20T01:20:17.839Z,9.09
2023-03-20T01:22:47.062Z,9.01
2023-03-20T01:25:17.810Z,9.03
2023-03-20T01:27:51.424Z,8.94
2023-03-20T01:30:23.458Z,9.05
2023-03-20T01:32:53.171Z,9.02
2023-03-20T01:35:25.087Z,8.96
2023-03-20T01:37:54.512Z,8.84
2023-03-20T01:40:38.401Z,9.01
2023-03-20T01:43:14.746Z,9.02
2023-03-20T01:45:55.245Z,8.88
2023-03-20T01:48:28.625Z,8.74
2023-03-20T01:50:57.742Z,8.65
2023-03-20T01:53:30.782Z,8.46
2023-03-20T01:56:04.831Z,8.43
2023-03-20T01:58:46.673Z,8.50
2023-03-20T02:01:16.659Z,8.37
2023-03-20T02:03:51.833Z,8.35
2023-03-20T02:06:34.272Z,8.16
2023-03-20T02:09:13.657Z,8.19
2023-03-20T02:11:47.473Z,8.25
2023-03-20T02:14:18.604Z,8.11
2023-03-20T02:16:56.536Z,8.09
2023-03-20T02:19:47.542Z,7.99
2023-03-20T02:23:04.501Z,7.87
2023-03-20T02:26:09.170Z,7.77
2023-03-20T02:29:10.352Z,7.89
2023-03-20T02:32:15.350Z,7.83
2023-03-20T02:35:15.459Z,7.78
2023-03-20T02:38:26.318Z,7.70
2023-03-20T02:41:03.186Z,7.65
2023-03-20T02:43:43.251Z,7.70
2023-03-20T02:46:19.246Z,7.85
2023-03-20T02:48:55.687Z,7.75
2023-03-20T02:51:32.770Z,7.59
2023-03-20T02:54:08.353Z,7.67
2023-03-20T02:56:49.237Z,7.71
2023-03-20T02:59:27.794Z,7.56
2023-03-20T03:02:04.062Z,7.68
2023-03-20T03:04:39.344Z,7.54
2023-03-20T03:07:11.987Z,7.65
2023-03-20T03:09:47.282Z,7.55
2023-03-20T03:12:21.410Z,7.58
2023-03-20T03:14:54.547Z,7.65
2023-03-20T03:17:28.257Z,7.63
2023-03-20T03:20:04.802Z,7.52
2023-03-20T03:22:36.226Z,7.69
2023-03-20T03:25:06.632Z,7.67
2023-03-20T03:27:42.033Z,7.45
2023-03-20T03:30:17.057Z,7.48
2023-03-20T03:32:52.368Z,7.47
2023-03-20T03:35:24.529Z,7.47
2023-03-20T03:37:59.938Z,7.61
2023-03-20T03:40:36.982Z,7.48
2023-03-20T03:43:16.490Z,7.52
2023-03-20T03:45:50.629Z,7.47
2023-03-20T03:48:25.790Z,7.56
2023-03-20T03:50:58.425Z,7.63
2023-03-20T03:53:32.944Z,7.47
2023-03-20T03:56:07.276Z,7.33
2023-03-20T03:58:42.816Z,7.38
2023-03-20T04:01:14.180Z,7.47
2023-03-20T04:03:47.212Z,7.48
2023-03-20T04:06:18.148Z,7.45
2023-03-20T04:08:47.486Z,7.32
2023-03-20T04:11:18.561Z,7.33
2023-03-20T04:13:50.779Z,7.45
2023-03-20T04:16:21.841Z,7.43
2023-03-20T04:18:51.923Z,7.47
2023-03-20T04:21:21.567Z,7.51
2023-03-20T04:23:50.739Z,7.36
2023-03-20T04:26:21.411Z,7.35
2023-03-20T04:28:52.077Z,7.37
2023-03-20T04:31:32.989Z,7.32
2023-03-20T04:34:12.877Z,7.31
2023-03-20T04:37:02.613Z,7.37
2023-03-20T04:39:44.296Z,7.43
2023-03-20T04:42:13.782Z,7.43
2023-03-20T04:44:44.343Z,7.54
2023-03-20T04:47:13.413Z,7.25
2023-03-20T04:49:44.721Z,7.33
2023-03-20T04:52:13.884Z,7.34
2023-03-20T04:54:45.071Z,7.46
2023-03-20T04:57:14.422Z,7.34
2023-03-20T04:59:45.332Z,7.44
2023-03-20T05:02:15.088Z,7.45
2023-03-20T05:04:44.257Z,7.51
2023-03-20T05:07:13.762Z,7.43
2023-03-20T05:09:52.069Z,7.50
2023-03-20T05:12:22.876Z,7.43
2023-03-20T05:15:10.820Z,7.26
2023-03-20T05:17:58.131Z,7.36
2023-03-20T05:20:53.459Z,7.34
2023-03-20T05:23:41.270Z,7.25
2023-03-20T05:26:28.831Z,7.39
2023-03-20T05:29:11.948Z,7.43
2023-03-20T05:32:01.740Z,7.42
2023-03-20T05:34:57.456Z,7.35
2023-03-20T05:37:35.995Z,7.48
2023-03-20T05:40:12.081Z,7.47
2023-03-20T05:42:52.687Z,7.39
2023-03-20T05:45:45.492Z,7.32
2023-03-20T05:48:36.875Z,7.45
2023-03-20T05:51:21.621Z,7.48
2023-03-20T05:53:56.381Z,7.47
2023-03-20T05:56:37.549Z,7.51
2023-03-20T05:59:23.120Z,7.53
2023-03-20T06:02:05.382Z,7.64
2023-03-20T06:04:39.293Z,7.51
2023-03-20T06:07:21.552Z,7.54
2023-03-20T06:09:59.220Z,7.50
2023-03-20T06:12:29.622Z,7.39
2023-03-20T06:14:58.720Z,7.30
2023-03-20T06:17:28.892Z,7.34
2023-03-20T06:20:06.759Z,7.52
2023-03-20T06:22:35.919Z,7.31
2023-03-20T06:25:05.946Z,7.20
2023-03-20T06:27:40.519Z,7.41
2023-03-20T06:30:11.513Z,7.42
2023-03-20T06:32:42.752Z,7.38
2023-03-20T06:35:16.484Z,7.45
2023-03-20T06:37:48.551Z,7.45
2023-03-20T06:40:23.250Z,7.34
2023-03-20T06:42:52.968Z,7.38
2023-03-20T06:45:24.140Z,7.37
2023-03-20T06:48:01.966Z,7.49
2023-03-20T06:50:32.927Z,7.49
2023-03-20T06:53:03.031Z,7.44
2023-03-20T06:56:01.761Z,7.52
2023-03-20T06:58:31.425Z,7.57
2023-03-20T07:01:00.446Z,7.68
2023-03-20T07:03:30.171Z,7.60
2023-03-20T07:06:03.131Z,7.70
2023-03-20T07:08:34.720Z,7.59
2023-03-20T07:11:04.649Z,7.62
2023-03-20T07:13:34.267Z,7.57
2023-03-20T07:16:12.784Z,7.60
2023-03-20T07:18:43.902Z,7.69
2023-03-20T07:21:21.246Z,7.69
2023-03-20T07:23:50.421Z,7.70
2023-03-20T07:26:19.703Z,7.72
2023-03-20T07:28:48.966Z,7.84
2023-03-20T07:31:31.124Z,7.74
2023-03-20T07:34:11.386Z,7.95
2023-03-20T07:36:43.150Z,7.77
2023-03-20T07:39:14.942Z,7.75
2023-03-20T07:41:49.518Z,7.65
2023-03-20T07:44:28.202Z,7.81
2023-03-20T07:46:58.108Z,7.84
2023-03-20T07:49:27.429Z,7.88
2023-03-20T07:51:57.996Z,7.96
2023-03-20T07:54:27.355Z,7.86
2023-03-20T07:56:56.506Z,8.03
2023-03-20T07:59:26.304Z,7.91
2023-03-20T08:01:55.362Z,8.05
2023-03-20T08:04:24.754Z,8.42
2023-03-20T08:06:53.902Z,8.18
2023-03-20T08:09:25.041Z,8.32
2023-03-20T08:11:54.160Z,8.17
2023-03-20T08:14:23.452Z,8.23
2023-03-20T08:17:10.329Z,8.34
2023-03-20T08:19:41.867Z,8.45
2023-03-20T08:22:11.038Z,8.39
2023-03-20T08:24:41.512Z,8.32
2023-03-20T08:27:10.634Z,8.22
2023-03-20T08:29:40.055Z,8.27
2023-03-20T08:32:09.294Z,8.47
2023-03-20T08:34:38.513Z,8.24
2023-03-20T08:37:07.870Z,8.47
2023-03-20T08:39:37.733Z,8.39
2023-03-20T08:42:08.512Z,8.42
2023-03-20T08:44:37.570Z,8.57
2023-03-20T08:47:07.582Z,8.58
2023-03-20T08:49:36.905Z,8.67
2023-03-20T08:52:06.935Z,8.56
2023-03-20T08:54:36.177Z,8.32
2023-03-20T08:57:05.263Z,8.45
2023-03-20T08:59:36.067Z,8.63
2023-03-20T09:02:05.676Z,8.79
2023-03-20T09:04:34.759Z,8.61
2023-03-20T09:07:04.085Z,8.72
2023-03-20T09:09:33.380Z,8.80
2023-03-20T09:12:02.877Z,8.97
2023-03-20T09:14:31.962Z,8.92
2023-03-20T09:17:02.453Z,8.90
2023-03-20T09:19:31.937Z,8.90
2023-03-20T09:22:01.402Z,8.98
2023-03-20T09:24:31.417Z,8.95
2023-03-20T09:27:03.521Z,8.92
2023-03-20T09:29:32.941Z,9.10
2023-03-20T09:32:03.535Z,8.99
2023-03-20T09:34:32.628Z,9.02
2023-03-20T09:37:03.140Z,9.10
2023-03-20T09:39:32.352Z,9.16
2023-03-20T09:42:07.956Z,9.20
2023-03-20T09:44:52.383Z,9.01
2023-03-20T09:47:31.235Z,9.36
2023-03-20T09:50:29.419Z,9.07
2023-03-20T09:53:07.095Z,9.15
2023-03-20T09:55:39.800Z,9.21
2023-03-20T09:58:16.246Z,9.16
2023-03-20T10:00:47.930Z,9.26
2023-03-20T10:03:22.555Z,9.19
2023-03-20T10:06:00.093Z,9.21
2023-03-20T10:08:32.562Z,9.10
2023-03-20T10:11:12.872Z,9.39
2023-03-20T10:13:57.603Z,9.43
2023-03-20T10:16:45.644Z,9.44
2023-03-20T10:19:23.759Z,9.45
2023-03-20T10:21:59.050Z,9.31
2023-03-20T10:24:32.962Z,9.32
2023-03-20T10:27:07.346Z,9.24
2023-03-20T10:29:52.944Z,9.32
2023-03-20T10:32:27.976Z,9.18
2023-03-20T10:35:11.415Z,9.15
2023-03-20T10:37:54.249Z,9.47
2023-03-20T10:40:30.288Z,9.35
2023-03-20T10:43:04.140Z,9.09
2023-03-20T10:45:40.423Z,9.38
2023-03-20T10:48:18.004Z,9.37
2023-03-20T10:50:51.777Z,9.54
2023-03-20T10:53:38.422Z,9.13
2023-03-20T10:56:11.765Z,9.31
2023-03-20T10:58:45.120Z,9.43
2023-03-20T11:01:14.339Z,9.92
2023-03-20T11:03:43.525Z,9.50
2023-03-20T11:06:20.109Z,9.43
2023-03-20T11:08:52.398Z,9.44
2023-03-20T11:11:26.575Z,9.21
2023-03-20T11:13:56.951Z,9.44
2023-03-20T11:16:31.113Z,10.08
2023-03-20T11:19:06.929Z,9.40
2023-03-20T11:21:46.407Z,9.64
2023-03-20T11:24:27.040Z,9.84
2023-03-20T11:27:05.959Z,9.82
2023-03-20T11:29:36.111Z,9.87
2023-03-20T11:32:08.359Z,9.85
2023-03-20T11:34:41.228Z,9.77
2023-03-20T11:37:25.857Z,9.73
2023-03-20T11:39:58.551Z,10.08
2023-03-20T11:42:30.326Z,9.63
2023-03-20T11:45:02.066Z,9.79
2023-03-20T11:47:35.372Z,9.88
2023-03-20T11:50:07.305Z,9.73
2023-03-20T11:52:40.995Z,9.69
2023-03-20T11:55:26.130Z,9.49
2023-03-20T11:57:58.964Z,9.66
2023-03-20T12:00:30.332Z,9.45
2023-03-20T12:02:59.405Z,9.93
2023-03-20T12:05:35.447Z,9.83
2023-03-20T12:08:14.030Z,9.85
2023-03-20T12:10:47.043Z,9.94
2023-03-20T12:13:21.698Z,9.76
2023-03-20T12:15:56.593Z,9.65
2023-03-20T12:18:32.589Z,10.07
2023-03-20T12:21:10.563Z,9.79
2023-03-20T12:23:44.849Z,10.03
2023-03-20T12:26:16.902Z,10.01
2023-03-20T12:28:53.560Z,10.05
2023-03-20T12:31:27.470Z,10.01
2023-03-20T12:34:01.394Z,10.11
2023-03-20T12:36:34.318Z,10.12
2023-03-20T12:39:08.074Z,9.92
2023-03-20T12:41:46.495Z,10.06
2023-03-20T12:44:33.442Z,10.00
2023-03-20T12:47:14.973Z,10.05
2023-03-20T12:49:51.935Z,10.47
2023-03-20T12:52:33.142Z,10.51
2023-03-20T12:55:26.810Z,10.97
2023-03-20T12:58:09.451Z,11.09
2023-03-20T13:00:49.600Z,11.11
2023-03-20T13:03:31.138Z,11.34
2023-03-20T13:06:08.328Z,11.51
2023-03-20T13:09:10.225Z,10.91
2023-03-20T13:11:51.706Z,11.23
2023-03-20T13:14:25.729Z,11.09
2023-03-20T13:17:00.763Z,10.76
2023-03-20T13:19:38.221Z,10.92
2023-03-20T13:22:13.868Z,10.87
2023-03-20T13:24:47.229Z,10.73
2023-03-20T13:27:33.052Z,10.60
2023-03-20T13:30:06.322Z,10.55
2023-03-20T13:32:47.038Z,10.59
2023-03-20T13:35:33.081Z,10.45
2023-03-20T13:38:07.820Z,10.48
2023-03-20T13:40:41.063Z,10.57
2023-03-20T13:43:26.126Z,10.76
2023-03-20T13:46:04.606Z,10.50
2023-03-20T13:48:37.274Z,10.59
2023-03-20T13:51:15.012Z,10.65
2023-03-20T13:53:56.027Z,10.64
2023-03-20T13:56:37.012Z,10.65
2023-03-20T13:59:29.717Z,10.44
2023-03-20T14:02:07.020Z,10.58
2023-03-20T14:04:37.833Z,10.79
2023-03-20T14:07:30.003Z,10.45
2023-03-20T14:09:59.391Z,10.55
2023-03-20T14:12:33.251Z,10.47
2023-03-20T14:15:06.001Z,10.45
2023-03-20T14:17:35.348Z,10.34
2023-03-20T14:20:17.241Z,10.46
2023-03-20T14:22:48.945Z,10.33
2023-03-20T14:25:21.118Z,10.15
2023-03-20T14:27:57.934Z,10.37
2023-03-20T14:30:43.099Z,10.18
2023-03-20T14:33:31.168Z,10.50
2023-03-20T14:36:20.673Z,10.63
2023-03-20T14:39:07.168Z,10.80
2023-03-20T14:41:58.490Z,10.50
2023-03-20T14:44:39.612Z,10.44
2023-03-20T14:47:23.336Z,10.44
2023-03-20T14:49:58.708Z,10.28
2023-03-20T14:52:38.943Z,9.88
2023-03-20T14:55:35.380Z,9.77
2023-03-20T14:58:07.059Z,9.72
2023-03-20T15:00:47.448Z,9.66
2023-03-20T15:03:19.722Z,9.83
2023-03-20T15:05:57.007Z,9.68
2023-03-20T15:08:29.944Z,9.41
2023-03-20T15:11:04.058Z,9.70
2023-03-20T15:13:35.271Z,9.68
2023-03-20T15:16:08.074Z,9.54
2023-03-20T15:18:41.328Z,9.64
2023-03-20T15:21:15.637Z,9.48
2023-03-20T15:23:46.381Z,9.65
2023-03-20T15:26:16.973Z,9.39
2023-03-20T15:28:47.900Z,9.41
2023-03-20T15:31:25.350Z,9.33
2023-03-20T15:33:57.646Z,9.19
2023-03-20T15:36:29.555Z,9.26
2023-03-20T15:39:14.156Z,9.29
2023-03-20T15:41:47.312Z,8.96
2023-03-20T15:44:22.990Z,8.92
2023-03-20T15:46:54.518Z,8.89
2023-03-20T15:49:25.600Z,9.14
2023-03-20T15:51:57.116Z,9.11
2023-03-20T15:54:26.540Z,8.88
2023-03-20T15:56:59.878Z,8.96
2023-03-20T15:59:32.902Z,8.99
2023-03-20T16:02:03.423Z,8.96
2023-03-20T16:04:34.036Z,9.03
2023-03-20T16:07:03.218Z,8.88
2023-03-20T16:09:32.302Z,8.97
2023-03-20T16:12:03.098Z,8.69
2023-03-20T16:14:34.787Z,8.72
2023-03-20T16:17:05.824Z,8.89
2023-03-20T16:19:37.834Z,8.53
2023-03-20T16:22:24.353Z,8.58
2023-03-20T16:24:58.211Z,8.67
2023-03-20T16:27:30.517Z,8.78
2023-03-20T16:30:00.256Z,8.88
2023-03-20T16:32:36.052Z,8.82
2023-03-20T16:35:15.877Z,8.81
2023-03-20T16:37:49.874Z,8.78
2023-03-20T16:40:22.376Z,8.86
2023-03-20T16:42:56.823Z,8.97
2023-03-20T16:45:30.667Z,8.79
2023-03-20T16:48:28.366Z,8.69
2023-03-20T16:51:17.433Z,8.70
2023-03-20T16:53:49.772Z,8.79
2023-03-20T16:56:26.206Z,8.89
2023-03-20T16:58:57.249Z,8.90
2023-03-20T17:01:29.610Z,8.75
2023-03-20T17:04:12.319Z,8.81
2023-03-20T17:06:47.963Z,8.82
2023-03-20T17:09:24.642Z,8.90
2023-03-20T17:12:02.392Z,8.89
2023-03-20T17:14:31.621Z,8.95
2023-03-20T17:17:00.825Z,8.93
2023-03-20T17:19:33.170Z,8.89
2023-03-20T17:22:05.553Z,8.96
2023-03-20T17:24:34.780Z,8.86
2023-03-20T17:27:03.861Z,8.93
2023-03-20T17:29:33.022Z,8.90
2023-03-20T17:32:02.082Z,8.92
2023-03-20T17:34:31.323Z,8.96
2023-03-20T17:37:03.567Z,8.86
2023-03-20T17:39:32.616Z,8.78
2023-03-20T17:42:01.666Z,8.88
2023-03-20T17:44:30.753Z,8.86
2023-03-20T17:47:00.389Z,8.82
2023-03-20T17:49:29.503Z,8.70
2023-03-20T17:51:58.605Z,8.70
2023-03-20T17:54:29.067Z,8.63
2023-03-20T17:56:58.169Z,8.71
2023-03-20T17:59:31.056Z,8.71
2023-03-20T18:02:00.263Z,8.72
2023-03-20T18:04:29.448Z,8.39
2023-03-20T18:06:58.874Z,8.38
2023-03-20T18:09:30.600Z,8.34
2023-03-20T18:11:59.756Z,8.41
2023-03-20T18:14:28.863Z,8.22
2023-03-20T18:16:58.106Z,8.04
2023-03-20T18:19:30.296Z,8.06
2023-03-20T18:22:00.554Z,8.14
2023-03-20T18:24:32.325Z,8.09
2023-03-20T18:27:01.528Z,8.11
2023-03-20T18:29:31.037Z,8.07
2023-03-20T18:32:00.371Z,8.01
2023-03-20T18:34:29.407Z,8.01
2023-03-20T18:36:59.573Z,7.97
2023-03-20T18:39:28.695Z,8.02
2023-03-20T18:41:59.091Z,8.05
2023-03-20T18:44:28.151Z,7.98
2023-03-20T18:46:57.693Z,8.03
2023-03-20T18:49:26.906Z,7.93
2023-03-20T18:51:56.048Z,8.16
2023-03-20T18:54:25.054Z,7.99
2023-03-20T18:56:56.314Z,8.00
2023-03-20T18:59:26.837Z,8.07
2023-03-20T19:01:56.011Z,7.99
2023-03-20T19:04:26.763Z,8.01
2023-03-20T19:06:55.794Z,7.99
2023-03-20T19:09:25.362Z,7.89
2023-03-20T19:11:54.651Z,8.05
2023-03-20T19:14:25.706Z,8.07
2023-03-20T19:16:56.330Z,8.02
2023-03-20T19:19:25.655Z,8.04
2023-03-20T19:21:54.703Z,7.99
2023-03-20T19:24:23.956Z,8.03
2023-03-20T19:26:56.943Z,7.99
2023-03-20T19:29:28.095Z,8.01
2023-03-20T19:31:59.754Z,7.98
2023-03-20T19:35:10.770Z,7.96
2023-03-20T19:37:18.255Z,8.03
2023-03-20T19:39:47.320Z,8.00
2023-03-20T19:42:47.475Z,8.04
2023-03-20T19:45:07.325Z,8.05
2023-03-20T19:47:37.834Z,7.99
2023-03-20T19:50:07.649Z,7.95
2023-03-20T19:52:37.481Z,7.93
2023-03-20T19:55:07.519Z,7.95
2023-03-20T19:57:36.577Z,8.01
2023-03-20T20:00:54.972Z,7.99
2023-03-20T20:02:57.718Z,8.00
2023-03-20T20:05:29.451Z,8.01
2023-03-20T20:10:50.212Z,8.01
2023-03-20T20:13:21.522Z,7.99
2023-03-20T20:15:52.011Z,7.98
2023-03-20T20:18:24.783Z,8.00
2023-03-20T20:21:39.455Z,7.99
2023-03-20T20:23:44.104Z,7.99
2023-03-20T20:26:13.165Z,7.92
2023-03-20T20:28:43.546Z,7.88
2023-03-20T20:31:12.598Z,7.93
2023-03-20T20:33:43.254Z,7.89
2023-03-20T20:39:04.701Z,7.93
2023-03-20T20:41:34.231Z,7.94
2023-03-20T20:44:15.553Z,7.98
2023-03-20T20:46:45.504Z,7.96
2023-03-20T20:49:19.941Z,7.94
2023-03-20T20:51:50.201Z,7.98
2023-03-20T20:54:19.485Z,8.05
2023-03-20T20:56:48.728Z,7.99
2023-03-20T20:59:19.020Z,7.96
2023-03-20T21:01:48.899Z,7.94
2023-03-20T21:04:19.675Z,7.94
2023-03-20T21:07:10.030Z,7.82
2023-03-20T21:09:38.300Z,7.92
2023-03-20T21:12:08.640Z,7.86
2023-03-20T21:14:38.232Z,7.80
2023-03-20T21:17:08.090Z,7.89
2023-03-20T21:19:40.540Z,7.90
2023-03-20T21:22:11.927Z,7.87
2023-03-20T21:24:41.321Z,7.80
2023-03-20T21:27:13.768Z,7.90
2023-03-20T21:29:44.461Z,7.84
2023-03-20T21:32:17.194Z,7.88
2023-03-20T21:34:49.227Z,7.87
2023-03-20T21:40:10.632Z,7.79
2023-03-20T21:42:39.861Z,7.72
2023-03-20T21:46:25.257Z,7.77
2023-03-20T21:48:33.343Z,7.78
2023-03-20T21:51:23.552Z,7.78
2023-03-20T21:59:54.474Z,7.77
2023-03-20T22:02:14.981Z,7.68
2023-03-20T22:08:18.490Z,7.72
2023-03-20T22:11:22.693Z,7.59
2023-03-20T22:17:00.616Z,7.63
2023-03-20T22:22:31.979Z,7.61
2023-03-20T22:42:25.801Z,7.59
2023-03-20T22:44:58.961Z,7.55
2023-03-20T22:47:15.324Z,7.70
2023-03-20T22:49:44.347Z,7.61
2023-03-20T22:52:27.139Z,7.52
2023-03-20T22:55:02.519Z,7.56
2023-03-20T22:57:42.324Z,7.65
2023-03-20T23:00:17.953Z,7.59
2023-03-20T23:02:47.613Z,7.62
2023-03-20T23:05:16.877Z,7.54
2023-03-20T23:07:46.079Z,7.67
2023-03-20T23:10:15.323Z,7.68
2023-03-20T23:12:46.049Z,7.57
2023-03-20T23:15:15.127Z,7.55
2023-03-20T23:17:44.109Z,7.50
2023-03-20T23:20:18.752Z,7.50
2023-03-20T23:22:49.482Z,7.51
2023-03-20T23:25:31.074Z,7.55
2023-03-20T23:28:09.119Z,7.62
2023-03-20T23:30:45.330Z,7.56
2023-03-20T23:33:17.726Z,7.48
2023-03-20T23:35:47.470Z,7.52
2023-03-20T23:38:17.503Z,7.52
2023-03-20T23:40:50.521Z,7.50
2023-03-20T23:43:21.188Z,7.57
2023-03-20T23:45:51.039Z,7.51
2023-03-20T23:48:20.437Z,7.55
2023-03-20T23:50:53.353Z,7.53
2023-03-20T23:53:23.398Z,7.54
2023-03-20T23:55:55.122Z,7.53
2023-03-20T23:58:27.003Z,7.56
